Time;durP1;ratioP1;P1;durP2;ratioP2;P2;SDS_P1;SDS_P2;PMS_P1;PMS_P2;Temp;Humidity;BMP_temperature;BMP_pressure;BME280_temperature;BME280_humidity;BME280_pressure;Samples;Min_cycle;Max_cycle;Signal;HPM_P1;HPM_P2
2022/01/21 00:01:02;;;;;;;3.55;0.60;;;;;;;1.81;59.89;101883.22;4937429;29;20031;-82
2022/01/21 00:03:28;;;;;;;3.75;0.63;;;;;;;1.83;60.49;101885.78;4953840;29;20034;-83
2022/01/21 00:05:53;;;;;;;3.25;0.70;;;;;;;1.92;60.58;101881.56;4954285;29;20035;-83
2022/01/21 00:08:19;;;;;;;2.65;0.38;;;;;;;1.82;60.52;101862.84;4953370;29;20051;-82
2022/01/21 00:10:44;;;;;;;3.15;0.25;;;;;;;1.91;61.24;101888.69;4951083;29;20036;-81
2022/01/21 00:13:42;;;;;;;13.02;1.35;;;;;;;1.88;61.01;101889.75;4935543;29;20120;-82
2022/01/21 00:16:05;;;;;;;1.48;0.50;;;;;;;1.86;61.95;101867.81;4929021;29;20063;-82
2022/01/21 00:18:31;;;;;;;6.18;0.90;;;;;;;2.00;61.93;101895.94;4939849;28;20493;-83
2022/01/21 00:31:55;;;;;;;3.38;0.70;;;;;;;1.94;62.65;101917.66;4953778;29;20078;-84
2022/01/21 00:34:21;;;;;;;3.35;0.50;;;;;;;1.91;62.51;101919.69;4939336;29;20434;-84
2022/01/21 00:36:48;;;;;;;6.18;0.75;;;;;;;1.86;63.67;101920.03;4931839;29;20461;-84
2022/01/21 00:39:14;;;;;;;1.23;0.40;;;;;;;1.98;62.63;101913.78;4936273;29;20044;-83
2022/01/21 00:41:54;;;;;;;2.60;0.77;;;;;;;1.96;63.31;101899.81;4921957;29;20036;-85
2022/01/21 00:44:20;;;;;;;1.77;0.28;;;;;;;2.05;63.57;101924.78;4923260;29;20065;-83
2022/01/21 00:46:45;;;;;;;1.42;0.30;;;;;;;2.05;63.53;101925.66;4932274;29;20103;-83
2022/01/21 00:49:10;;;;;;;4.35;0.73;;;;;;;2.07;63.32;101925.53;4940593;29;20067;-83
2022/01/21 00:51:36;;;;;;;10.15;0.70;;;;;;;1.93;64.67;101915.13;4957514;29;20043;-84
2022/01/21 00:54:01;;;;;;;1.80;0.35;;;;;;;1.93;64.78;101936.34;4942859;29;20046;-86
2022/01/21 00:56:27;;;;;;;4.13;0.52;;;;;;;1.96;64.90;101929.00;4941704;29;20020;-84
2022/01/21 00:58:52;;;;;;;2.80;0.65;;;;;;;2.07;65.18;101944.97;4956834;29;20028;-83
2022/01/21 01:01:17;;;;;;;2.95;0.60;;;;;;;2.10;64.99;101939.41;4955595;29;20039;-83
2022/01/21 01:03:43;;;;;;;8.18;1.15;;;;;;;2.09;66.43;101918.31;4929939;29;20036;-84
2022/01/21 01:06:08;;;;;;;3.45;0.32;;;;;;;1.97;66.85;101914.75;4922243;29;20125;-85
2022/01/21 01:08:34;;;;;;;6.43;0.77;;;;;;;1.96;67.05;101925.50;4921016;29;20042;-84
2022/01/21 01:11:18;;;;;;;3.50;0.80;;;;;;;1.86;66.41;101920.88;4950747;29;20043;-82
2022/01/21 01:21:57;;;;;;;2.63;0.50;;;;;;;1.94;67.77;101922.97;4941957;29;20055;-83
2022/01/21 01:29:51;;;;;;;7.47;0.90;;;;;;;1.95;67.58;101931.75;4955877;29;20034;-84
2022/01/21 01:32:16;;;;;;;6.50;1.08;;;;;;;1.98;66.29;101912.94;4943234;29;20055;-83
2022/01/21 01:34:41;;;;;;;4.25;0.90;;;;;;;2.00;66.65;101930.47;4954769;29;20047;-83
2022/01/21 01:37:15;;;;;;;4.57;0.70;;;;;;;1.97;67.40;101920.06;4955751;29;20020;-84
2022/01/21 01:39:45;;;;;;;5.05;1.00;;;;;;;2.08;67.20;101919.25;4938359;29;20103;-83
2022/01/21 01:42:40;;;;;;;5.75;0.90;;;;;;;2.02;67.10;101917.94;4938243;29;20032;-84
2022/01/21 01:50:36;;;;;;;5.45;0.70;;;;;;;2.09;68.35;101923.63;4954788;29;20062;-84
2022/01/21 01:53:02;;;;;;;4.40;0.80;;;;;;;2.16;68.51;101937.28;4953910;29;20441;-83
2022/01/21 01:55:28;;;;;;;5.20;0.80;;;;;;;2.21;68.26;101935.94;4954635;29;20047;-84
2022/01/21 01:57:53;;;;;;;5.20;1.15;;;;;;;2.12;68.61;101936.66;4938831;29;20107;-84
2022/01/21 02:00:19;;;;;;;3.55;0.82;;;;;;;2.06;69.52;101937.13;4945870;29;20032;-84
2022/01/21 02:02:45;;;;;;;5.70;0.90;;;;;;;1.93;69.97;101931.91;4937886;29;20031;-83
2022/01/21 02:05:10;;;;;;;3.45;0.85;;;;;;;2.03;68.78;101913.47;4963885;29;20078;-84
2022/01/21 02:07:35;;;;;;;4.78;0.70;;;;;;;2.14;69.12;101929.41;4974010;29;20478;-84
2022/01/21 02:10:01;;;;;;;6.80;0.90;;;;;;;1.88;69.54;101908.31;4957249;28;20037;-84
2022/01/21 02:12:26;;;;;;;8.05;0.90;;;;;;;2.02;69.44;101925.03;4941663;29;20423;-84
2022/01/21 02:14:54;;;;;;;5.70;0.90;;;;;;;1.88;69.53;101928.72;4953960;29;20063;-82
2022/01/21 02:21:29;;;;;;;6.68;1.17;;;;;;;1.86;69.35;101909.44;4938837;29;20058;-84
2022/01/21 02:22:50;;;;;;;3.92;0.70;;;;;;;1.89;69.49;101914.50;4955893;29;20062;-84
2022/01/21 02:25:19;;;;;;;11.18;0.85;;;;;;;1.72;70.19;101901.63;4934871;29;20039;-84
2022/01/21 02:27:48;;;;;;;4.68;0.75;;;;;;;1.68;70.53;101898.38;4939129;29;20032;-86
2022/01/21 02:30:18;;;;;;;5.15;0.90;;;;;;;1.77;69.20;101921.56;4953052;29;20038;-85
2022/01/21 02:32:49;;;;;;;5.38;0.90;;;;;;;1.81;69.22;101911.56;4936871;29;20025;-83
2022/01/21 02:35:16;;;;;;;3.95;0.80;;;;;;;1.78;69.59;101917.94;4951059;29;20129;-84
2022/01/21 02:37:42;;;;;;;4.80;0.73;;;;;;;1.81;68.99;101927.50;4952821;29;20063;-82
2022/01/21 02:40:09;;;;;;;9.15;1.42;;;;;;;1.84;67.88;101922.81;4936491;29;20029;-85
2022/01/21 02:42:34;;;;;;;4.43;0.90;;;;;;;1.79;67.71;101910.84;4934627;29;20028;-84
2022/01/21 02:45:00;;;;;;;8.25;1.13;;;;;;;1.81;67.13;101916.88;4950679;29;20040;-84
2022/01/21 02:47:26;;;;;;;6.45;0.90;;;;;;;1.70;67.33;101895.63;4952263;29;20036;-83
2022/01/21 02:49:51;;;;;;;5.93;1.00;;;;;;;1.77;66.66;101900.34;4937352;29;20038;-85
2022/01/21 02:52:19;;;;;;;8.02;1.30;;;;;;;1.87;66.77;101906.66;4940745;29;20511;-82
2022/01/21 02:54:44;;;;;;;4.60;0.85;;;;;;;1.79;68.05;101910.84;4935340;29;20047;-85
2022/01/21 02:57:09;;;;;;;7.68;1.35;;;;;;;1.68;68.06;101898.38;4915634;29;20027;-85
2022/01/21 02:59:36;;;;;;;5.47;0.80;;;;;;;1.73;68.18;101913.97;4939406;29;20133;-82
2022/01/21 03:02:02;;;;;;;3.20;0.70;;;;;;;1.80;67.49;101893.97;4935871;29;20039;-83
2022/01/21 03:06:59;;;;;;;5.00;0.93;;;;;;;1.92;66.79;101862.97;4952896;29;20137;-83
2022/01/21 03:09:24;;;;;;;5.32;0.60;;;;;;;1.94;67.29;101877.84;4951879;29;20032;-84
2022/01/21 03:11:50;;;;;;;9.68;0.75;;;;;;;1.86;68.27;101867.81;4951858;29;20032;-82
2022/01/21 03:14:16;;;;;;;5.60;0.70;;;;;;;1.90;68.51;101872.88;4920388;29;20178;-82
2022/01/21 03:16:41;;;;;;;4.43;1.00;;;;;;;1.92;68.29;101874.47;4952413;29;20038;-85
2022/01/21 03:19:07;;;;;;;4.82;0.80;;;;;;;1.93;68.24;101873.50;4953605;29;20035;-83
2022/01/21 03:21:32;;;;;;;9.18;1.02;;;;;;;1.91;68.70;101882.53;4955257;29;20107;-84
2022/01/21 03:23:58;;;;;;;5.40;0.60;;;;;;;1.74;69.26;101871.38;4957759;29;20019;-85
2022/01/21 03:26:25;;;;;;;6.65;1.23;;;;;;;1.70;70.34;101883.19;4942199;29;20028;-85
2022/01/21 03:28:53;;;;;;;5.55;0.70;;;;;;;1.63;69.60;101874.00;4957438;29;20034;-83
2022/01/21 03:31:19;;;;;;;5.25;0.70;;;;;;;1.67;70.71;101880.78;4958999;29;20450;-84
2022/01/21 03:33:46;;;;;;;6.78;1.13;;;;;;;1.69;69.32;101886.81;4958903;29;20065;-84
2022/01/21 03:36:13;;;;;;;5.47;0.90;;;;;;;1.67;69.51;101888.72;4941633;29;20062;-85
2022/01/21 03:38:39;;;;;;;6.10;0.90;;;;;;;1.72;69.78;101898.97;4942242;29;20059;-85
2022/01/21 03:41:06;;;;;;;6.65;0.93;;;;;;;1.75;69.62;101904.06;4942035;29;20031;-85
2022/01/21 03:43:32;;;;;;;4.10;1.25;;;;;;;1.69;70.04;101902.75;4941606;29;20071;-84
2022/01/21 03:45:58;;;;;;;5.65;1.02;;;;;;;1.67;69.63;101896.69;4958244;29;20031;-85
2022/01/21 03:48:24;;;;;;;5.22;0.98;;;;;;;1.62;69.84;101898.81;4958516;29;20016;-84
2022/01/21 03:50:50;;;;;;;5.80;1.15;;;;;;;1.70;69.91;101911.53;4941915;29;20035;-85
2022/01/21 03:53:16;;;;;;;7.65;1.20;;;;;;;1.70;70.36;101908.88;4958334;29;20068;-84
2022/01/21 03:55:42;;;;;;;5.78;0.90;;;;;;;1.72;70.06;101904.28;4956942;29;20096;-84
2022/01/21 03:58:09;;;;;;;5.72;0.70;;;;;;;1.79;70.43;101917.00;4928831;29;20108;-84
2022/01/21 04:00:50;;;;;;;9.23;1.05;;;;;;;1.81;70.11;101931.00;4924107;29;20075;-85
2022/01/21 04:03:16;;;;;;;7.55;0.80;;;;;;;1.81;69.47;101936.28;4938679;29;20044;-83
2022/01/21 04:05:42;;;;;;;4.82;0.70;;;;;;;1.77;69.83;101926.03;4952355;29;20070;-85
2022/01/21 04:08:09;;;;;;;5.28;0.55;;;;;;;1.82;70.39;101934.47;4954953;29;20028;-85
2022/01/21 04:10:35;;;;;;;3.25;0.55;;;;;;;1.79;69.84;101935.59;4937345;29;20044;-85
2022/01/21 04:13:03;;;;;;;4.13;0.70;;;;;;;1.73;70.41;101945.81;4946000;29;20103;-85
2022/01/21 04:15:29;;;;;;;5.45;0.90;;;;;;;1.72;69.96;101939.63;4955703;29;20071;-84
2022/01/21 04:17:54;;;;;;;5.50;0.80;;;;;;;1.69;70.08;101939.88;4937895;29;20091;-85
2022/01/21 04:20:20;;;;;;;3.92;0.75;;;;;;;1.70;69.47;101951.34;4937914;29;20480;-85
2022/01/21 04:22:46;;;;;;;5.22;0.88;;;;;;;1.70;69.81;101944.22;4939012;29;20047;-85
2022/01/21 04:25:12;;;;;;;9.27;1.17;;;;;;;1.71;69.77;101959.16;4938472;29;20070;-84
2022/01/21 04:27:37;;;;;;;5.88;0.75;;;;;;;1.72;69.38;101957.34;4948151;29;20036;-85
2022/01/21 04:30:08;;;;;;;7.07;0.70;;;;;;;1.83;69.13;101971.53;4940215;29;20036;-84
2022/01/21 04:32:34;;;;;;;4.43;0.60;;;;;;;1.80;69.33;101968.28;4931900;29;20028;-84
2022/01/21 04:34:59;;;;;;;3.13;0.90;;;;;;;1.80;68.80;101958.50;4936925;29;20036;-86
2022/01/21 04:37:25;;;;;;;7.03;1.23;;;;;;;1.82;69.38;101967.19;4939129;29;20024;-84
2022/01/21 04:40:07;;;;;;;2.95;0.60;;;;;;;1.85;69.69;101963.44;4938535;29;20028;-83
2022/01/21 04:48:05;;;;;;;7.97;1.08;;;;;;;1.81;69.46;101946.91;4928384;29;20035;-84
2022/01/21 04:50:39;;;;;;;5.05;0.60;;;;;;;1.92;69.70;101946.13;4956208;29;20048;-85
2022/01/21 04:53:05;;;;;;;3.90;0.63;;;;;;;1.93;70.35;101945.16;4955343;29;20043;-84
2022/01/21 04:55:31;;;;;;;7.05;0.98;;;;;;;1.86;70.31;101934.16;4955117;29;20028;-83
2022/01/21 04:57:56;;;;;;;6.88;1.13;;;;;;;1.95;70.13;101945.03;4954561;29;20027;-83
2022/01/21 05:00:22;;;;;;;2.65;0.60;;;;;;;1.94;69.78;101928.25;4955326;29;20042;-82
2022/01/21 05:02:47;;;;;;;5.50;0.65;;;;;;;2.05;69.93;101936.28;4955050;29;20036;-83
2022/01/21 05:05:13;;;;;;;5.35;0.73;;;;;;;1.85;69.24;101911.25;4954921;29;20038;-84
2022/01/21 05:07:40;;;;;;;3.83;0.50;;;;;;;1.97;69.95;101938.66;4954934;29;20461;-84
2022/01/21 05:10:06;;;;;;;3.13;0.70;;;;;;;1.91;69.90;101931.16;4954938;29;20015;-83
2022/01/21 05:12:32;;;;;;;5.32;0.70;;;;;;;1.86;70.12;101939.47;4955036;29;20051;-82
2022/01/21 05:17:25;;;;;;;3.03;0.63;;;;;;;1.88;68.79;101940.19;4940689;29;20044;-84
2022/01/21 05:19:50;;;;;;;5.32;0.65;;;;;;;1.95;68.35;101931.75;4955637;29;20059;-84
2022/01/21 05:22:16;;;;;;;4.75;0.70;;;;;;;1.96;68.74;101931.66;4922217;29;20530;-84
2022/01/21 05:24:41;;;;;;;5.95;0.73;;;;;;;1.85;68.34;101928.94;4921190;29;20126;-84
2022/01/21 05:27:08;;;;;;;2.22;0.52;;;;;;;1.94;69.27;101943.34;4949338;29;20027;-84
2022/01/21 05:29:34;;;;;;;3.85;0.57;;;;;;;1.91;69.70;101938.28;4949936;29;20024;-83
2022/01/21 05:32:01;;;;;;;5.28;0.57;;;;;;;1.88;70.20;101940.19;4950931;29;20035;-84
2022/01/21 05:34:27;;;;;;;7.97;1.05;;;;;;;1.82;70.60;101934.47;4950662;29;20043;-87
2022/01/21 05:36:53;;;;;;;6.32;0.70;;;;;;;1.77;71.62;101941.97;4957055;29;20031;-84
2022/01/21 05:39:19;;;;;;;6.05;0.80;;;;;;;1.77;71.71;101942.78;4939094;29;20028;-83
2022/01/21 05:41:48;;;;;;;9.65;0.90;;;;;;;1.76;72.59;101953.53;4938109;29;20042;-84
2022/01/21 05:46:55;;;;;;;2.55;0.43;;;;;;;1.93;72.18;101942.50;4957888;29;20029;-83
2022/01/21 05:49:26;;;;;;;4.93;0.73;;;;;;;1.96;72.04;101936.13;4957894;29;20028;-86
2022/01/21 05:52:00;;;;;;;6.60;0.80;;;;;;;1.98;72.37;101944.81;4959394;28;20043;-86
2022/01/21 05:54:26;;;;;;;4.87;1.00;;;;;;;1.99;73.04;101947.38;4962890;29;20023;-87
2022/01/21 05:56:51;;;;;;;4.72;0.88;;;;;;;1.97;73.39;101932.50;4927170;29;20055;-85
2022/01/21 05:59:17;;;;;;;5.88;0.73;;;;;;;1.94;73.46;101920.31;4959325;29;20457;-85
2022/01/21 06:01:42;;;;;;;4.95;1.00;;;;;;;2.05;73.18;101930.09;4941835;29;20477;-84
2022/01/21 06:04:08;;;;;;;4.72;0.77;;;;;;;2.10;73.33;101936.75;4941362;29;20038;-86
2022/01/21 06:06:34;;;;;;;6.88;0.98;;;;;;;2.09;73.15;101943.06;4941481;29;20031;-85
2022/01/21 06:08:59;;;;;;;7.30;0.77;;;;;;;1.96;74.04;101925.50;4948325;29;20047;-85
2022/01/21 06:11:24;;;;;;;6.50;0.85;;;;;;;1.98;73.67;101945.66;4956577;29;20019;-86
2022/01/21 06:13:51;;;;;;;7.03;1.00;;;;;;;1.79;74.17;101934.75;4958991;29;20074;-86
2022/01/21 06:16:17;;;;;;;8.00;1.02;;;;;;;1.92;74.34;101945.25;4942169;29;20036;-86
2022/01/21 06:18:44;;;;;;;4.03;0.50;;;;;;;1.82;74.08;101927.41;4953499;29;20024;-86
2022/01/21 06:21:09;;;;;;;4.18;0.70;;;;;;;1.92;74.69;101942.59;4940173;29;20036;-87
2022/01/21 06:23:35;;;;;;;5.15;0.70;;;;;;;1.79;75.21;101932.94;4940506;29;20035;-87
2022/01/21 06:26:00;;;;;;;9.55;1.00;;;;;;;1.78;75.13;101933.03;4955998;29;20463;-88
2022/01/21 06:28:26;;;;;;;6.40;0.90;;;;;;;1.83;75.73;101937.03;4956078;28;20037;-87
2022/01/21 06:30:52;;;;;;;5.82;0.80;;;;;;;1.81;74.87;101922.19;4956011;28;20044;-87
2022/01/21 06:33:20;;;;;;;8.35;0.80;;;;;;;1.90;74.53;101926.81;4944674;29;20072;-86
2022/01/21 06:35:46;;;;;;;7.13;1.00;;;;;;;1.87;74.09;101927.88;4958659;29;20020;-87
2022/01/21 06:38:13;;;;;;;7.55;0.77;;;;;;;1.74;73.64;101903.22;4959420;29;20042;-87
2022/01/21 06:40:40;;;;;;;7.63;0.82;;;;;;;1.81;74.00;101920.38;4959319;29;20008;-87
2022/01/21 06:43:06;;;;;;;9.80;1.50;;;;;;;1.70;74.02;101917.69;4958537;29;20055;-86
2022/01/21 06:45:31;;;;;;;7.63;1.02;;;;;;;1.59;74.50;101913.19;4957383;29;20046;-83
2022/01/21 06:48:02;;;;;;;5.65;0.80;;;;;;;1.58;74.54;101922.09;4946231;29;20035;-85
2022/01/21 06:50:28;;;;;;;7.40;0.60;;;;;;;1.51;74.74;101912.88;4955800;29;20052;-83
2022/01/21 06:52:53;;;;;;;12.63;0.88;;;;;;;1.54;74.65;101927.75;4940326;29;20042;-85
2022/01/21 06:55:19;;;;;;;6.65;0.88;;;;;;;1.50;75.14;101920.97;4955399;29;20023;-86
2022/01/21 06:57:44;;;;;;;12.32;0.77;;;;;;;1.39;75.11;101916.44;4959268;29;20051;-85
2022/01/21 07:00:13;;;;;;;7.05;0.80;;;;;;;1.28;74.89;101927.81;4958540;29;20035;-84
2022/01/21 07:02:39;;;;;;;5.43;0.85;;;;;;;1.15;75.47;101934.97;4942119;29;20024;-83
2022/01/21 07:05:05;;;;;;;6.78;1.10;;;;;;;1.00;75.84;101936.94;4939347;29;20039;-85
2022/01/21 07:07:31;;;;;;;6.53;1.00;;;;;;;0.94;76.10;101951.44;4943183;29;20114;-84
2022/01/21 07:09:56;;;;;;;7.72;0.88;;;;;;;0.78;76.34;101942.03;4946951;29;20032;-83
2022/01/21 07:12:22;;;;;;;5.97;0.88;;;;;;;0.81;76.78;101950.63;4949675;29;20493;-82
2022/01/21 07:14:48;;;;;;;8.90;1.20;;;;;;;0.76;76.82;101963.31;4949780;29;20067;-83
2022/01/21 07:17:13;;;;;;;11.55;1.67;;;;;;;0.66;77.03;101964.91;4950628;29;20095;-84
2022/01/21 07:19:38;;;;;;;3.80;0.60;;;;;;;0.50;77.00;101938.69;4947772;29;20051;-84
2022/01/21 07:22:04;;;;;;;7.47;1.00;;;;;;;0.41;77.78;101934.84;4940535;29;20036;-83
2022/01/21 07:24:30;;;;;;;11.23;1.50;;;;;;;0.41;77.97;101934.00;4961577;28;20035;-86
2022/01/21 07:26:55;;;;;;;6.57;0.73;;;;;;;0.39;78.11;101935.91;4942146;29;20051;-85
2022/01/21 07:29:21;;;;;;;4.20;0.70;;;;;;;0.37;78.20;101943.13;4958484;29;20468;-84
2022/01/21 07:31:51;;;;;;;5.13;0.70;;;;;;;0.30;78.38;101931.22;4941502;29;20122;-84
2022/01/21 07:34:16;;;;;;;6.15;0.90;;;;;;;0.36;78.55;101925.50;4952822;29;20019;-85
2022/01/21 07:36:42;;;;;;;4.85;0.80;;;;;;;0.35;78.45;101923.81;4938144;29;20038;-84
2022/01/21 07:39:07;;;;;;;7.47;0.73;;;;;;;0.32;78.78;101910.81;4917872;29;20024;-84
2022/01/21 07:41:32;;;;;;;8.18;0.73;;;;;;;0.33;79.06;101921.31;4937132;29;20039;-84
2022/01/21 07:43:58;;;;;;;5.78;0.70;;;;;;;0.35;79.29;101918.53;4940826;29;20038;-84
2022/01/21 07:46:24;;;;;;;5.40;0.70;;;;;;;0.42;79.10;101907.41;4939807;29;20046;-84
2022/01/21 07:48:50;;;;;;;6.25;1.10;;;;;;;0.63;79.18;101912.16;4928942;29;20028;-85
2022/01/21 07:51:16;;;;;;;5.78;1.00;;;;;;;0.69;79.51;101911.72;4954650;29;20031;-85
2022/01/21 07:53:41;;;;;;;10.15;0.70;;;;;;;0.81;80.13;101908.22;4942784;29;20043;-83
2022/01/21 07:56:07;;;;;;;10.95;0.90;;;;;;;1.20;81.90;101910.81;4961901;29;20034;-84
2022/01/21 07:58:32;;;;;;;10.18;1.20;;;;;;;1.64;85.16;101915.47;4977473;29;20070;-84
2022/01/21 08:00:57;;;;;;;6.13;1.08;;;;;;;1.94;86.83;101912.34;4959670;29;20043;-86
2022/01/21 08:03:24;;;;;;;8.55;1.17;;;;;;;2.18;86.41;101917.59;4942964;29;20059;-86
2022/01/21 08:05:51;;;;;;;6.45;0.85;;;;;;;2.39;86.25;101922.25;4906065;29;20016;-81
2022/01/21 08:08:16;;;;;;;6.13;0.90;;;;;;;2.44;85.54;101915.59;4921401;29;20021;-82
2022/01/21 08:10:42;;;;;;;6.18;0.90;;;;;;;2.64;85.33;101926.47;4925219;29;20054;-86
2022/01/21 08:13:07;;;;;;;8.80;1.00;;;;;;;2.77;84.83;101933.38;4937324;29;20032;-80
2022/01/21 08:15:33;;;;;;;3.40;0.40;;;;;;;2.80;84.60;101914.53;4911512;29;20084;-80
2022/01/21 08:17:58;;;;;;;4.63;0.75;;;;;;;2.98;84.15;101937.94;4929359;29;20106;-82
2022/01/21 08:20:24;;;;;;;10.73;0.93;;;;;;;3.00;84.29;101934.22;4917908;29;20100;-83
2022/01/21 08:22:50;;;;;;;10.00;0.98;;;;;;;3.09;83.98;101937.97;4936788;29;20441;-83
2022/01/21 08:25:16;;;;;;;4.65;0.82;;;;;;;3.10;83.24;101929.00;4932868;29;20020;-85
2022/01/21 08:27:41;;;;;;;8.75;1.00;;;;;;;3.15;83.51;101937.47;4905811;29;20112;-84
2022/01/21 08:30:08;;;;;;;10.65;1.52;;;;;;;3.16;83.49;101936.50;4919464;29;20079;-84
2022/01/21 08:32:34;;;;;;;6.97;0.90;;;;;;;3.08;84.11;101941.59;4888646;29;20028;-83
2022/01/21 08:35:00;;;;;;;5.38;0.93;;;;;;;2.78;83.03;101931.53;4919281;29;20142;-83
2022/01/21 08:37:25;;;;;;;5.18;0.90;;;;;;;2.53;82.62;101943.25;4921733;29;20485;-84
2022/01/21 08:39:51;;;;;;;8.10;1.33;;;;;;;2.26;82.17;101925.84;4917371;29;20044;-82
2022/01/21 08:42:17;;;;;;;6.10;0.75;;;;;;;2.46;81.48;101940.22;4919112;29;20537;-83
2022/01/21 08:44:43;;;;;;;5.95;0.65;;;;;;;2.60;81.37;101936.50;4913108;29;20036;-84
2022/01/21 08:47:08;;;;;;;5.15;0.70;;;;;;;2.64;80.98;101924.66;4937802;29;20099;-84
2022/01/21 08:49:34;;;;;;;9.98;0.98;;;;;;;2.77;80.38;101940.50;4932620;29;20060;-83
2022/01/21 08:52:00;;;;;;;7.15;0.93;;;;;;;2.71;80.25;101933.84;4933087;29;20066;-83
2022/01/21 08:54:27;;;;;;;5.68;1.05;;;;;;;2.71;80.04;101930.34;4931626;29;20024;-84
2022/01/21 08:56:54;;;;;;;8.35;0.93;;;;;;;2.68;79.92;101934.09;4932931;29;20096;-83
2022/01/21 08:59:21;;;;;;;8.85;0.95;;;;;;;2.63;79.38;101909.69;4932880;29;20024;-85
2022/01/21 09:01:49;;;;;;;7.60;1.08;;;;;;;2.66;79.55;101914.78;4933357;29;20039;-84
2022/01/21 09:04:15;;;;;;;6.97;0.88;;;;;;;2.65;79.65;101905.13;4932797;29;20038;-84
2022/01/21 09:06:40;;;;;;;6.55;0.75;;;;;;;2.72;79.53;101908.13;4932877;29;20152;-83
2022/01/21 09:09:06;;;;;;;5.70;0.80;;;;;;;2.80;79.29;101917.19;4902723;29;20088;-83
2022/01/21 09:11:31;;;;;;;8.10;0.98;;;;;;;2.96;80.25;101915.97;4899205;29;20036;-84
2022/01/21 09:13:58;;;;;;;8.68;0.93;;;;;;;3.06;80.08;101901.81;4915246;29;20079;-84
2022/01/21 09:16:23;;;;;;;5.18;1.00;;;;;;;3.14;80.72;101906.50;4916543;29;20051;-84
2022/01/21 09:18:54;;;;;;;5.60;0.70;;;;;;;3.19;80.76;101896.34;4934644;29;20032;-84
2022/01/21 09:21:22;;;;;;;10.45;0.98;;;;;;;3.22;82.03;101901.44;4933549;29;20043;-85
2022/01/21 09:23:49;;;;;;;10.82;1.30;;;;;;;3.26;84.99;101892.22;4934054;29;20102;-86
2022/01/21 09:26:16;;;;;;;10.02;1.10;;;;;;;3.35;85.47;101879.16;4943771;29;20087;-85
2022/01/21 09:28:43;;;;;;;6.60;0.93;;;;;;;3.35;86.27;101865.84;4952978;29;20095;-85
2022/01/21 09:31:08;;;;;;;7.32;1.10;;;;;;;3.42;85.86;101851.91;4935259;29;20063;-86
2022/01/21 09:33:34;;;;;;;9.13;1.17;;;;;;;3.45;85.60;101849.00;4936414;29;20036;-85
2022/01/21 09:35:59;;;;;;;10.45;0.77;;;;;;;3.58;85.10;101862.13;4935822;29;20116;-85
2022/01/21 09:38:26;;;;;;;13.75;1.17;;;;;;;3.59;84.98;101861.16;4919754;29;20043;-85
2022/01/21 09:40:52;;;;;;;7.93;1.17;;;;;;;3.62;85.36;101870.72;4935590;29;20084;-86
2022/01/21 09:43:19;;;;;;;11.63;1.58;;;;;;;3.57;85.84;101876.38;4936301;29;20039;-85
2022/01/21 09:45:51;;;;;;;10.68;1.45;;;;;;;3.55;86.15;101862.38;4952662;29;20028;-85
2022/01/21 09:48:22;;;;;;;8.77;1.55;;;;;;;3.54;87.04;101866.00;4953249;29;20031;-85
2022/01/21 09:50:50;;;;;;;10.80;1.20;;;;;;;3.59;86.62;101863.81;4920700;29;20485;-85
2022/01/21 09:53:18;;;;;;;10.23;1.00;;;;;;;3.53;86.98;101856.34;4953879;29;20038;-85
2022/01/21 09:55:43;;;;;;;10.30;1.35;;;;;;;3.50;86.88;101853.94;4950905;29;20362;-86
2022/01/21 09:58:09;;;;;;;9.15;1.20;;;;;;;3.58;87.02;101861.28;4930700;29;20035;-86
2022/01/21 10:00:34;;;;;;;7.35;0.90;;;;;;;3.59;87.42;101861.16;4953192;29;20051;-84
2022/01/21 10:03:03;;;;;;;6.97;1.30;;;;;;;3.57;87.76;101857.75;4935635;29;20035;-85
2022/01/21 10:05:30;;;;;;;7.70;1.15;;;;;;;3.63;87.41;101854.59;4936371;29;20043;-86
2022/01/21 10:07:58;;;;;;;7.53;1.17;;;;;;;3.61;86.73;101851.25;4936076;29;20032;-87
2022/01/21 10:10:24;;;;;;;5.78;0.82;;;;;;;3.71;87.10;101846.00;4952305;29;20109;-86
2022/01/21 10:12:50;;;;;;;8.30;0.90;;;;;;;3.85;86.94;101847.47;4935410;29;20095;-85
2022/01/21 10:15:16;;;;;;;10.95;1.33;;;;;;;3.93;86.09;101853.00;4951941;29;20119;-86
2022/01/21 10:18:31;;;;;;;8.02;1.08;;;;;;;3.96;85.88;101852.72;4935016;29;20050;-85
2022/01/21 10:21:04;;;;;;;11.10;1.38;;;;;;;3.96;85.33;101852.72;4930836;29;20035;-85
2022/01/21 10:23:31;;;;;;;8.68;1.00;;;;;;;3.86;86.00;101826.03;4950343;29;20355;-85
2022/01/21 10:26:04;;;;;;;8.27;1.15;;;;;;;3.96;86.67;101850.06;4950015;29;20038;-86
2022/01/21 10:28:31;;;;;;;12.82;1.30;;;;;;;3.96;87.03;101844.75;4952426;29;20039;-85
2022/01/21 10:31:11;;;;;;;5.63;0.77;;;;;;;3.92;86.54;101838.84;4920731;29;20035;-84
2022/01/21 10:33:46;;;;;;;9.25;1.27;;;;;;;3.97;86.51;101838.44;4938304;29;20020;-86
2022/01/21 10:36:26;;;;;;;7.65;1.17;;;;;;;4.08;86.20;101850.84;4954418;29;20024;-85
2022/01/21 10:38:56;;;;;;;8.73;1.90;;;;;;;4.12;86.72;101853.13;4935993;29;20031;-86
2022/01/21 10:41:30;;;;;;;8.10;1.10;;;;;;;4.14;86.93;101859.16;4941750;29;20016;-87
2022/01/21 10:44:10;;;;;;;10.30;1.30;;;;;;;4.10;87.44;101855.06;4938067;29;20031;-86
2022/01/21 10:46:38;;;;;;;14.65;1.52;;;;;;;4.13;88.13;101854.78;4943844;29;20108;-86
2022/01/21 10:49:03;;;;;;;9.90;1.35;;;;;;;4.08;88.54;101857.03;4951607;29;20027;-85
2022/01/21 10:51:33;;;;;;;13.02;1.45;;;;;;;4.05;89.53;101846.63;4952278;29;20003;-86
2022/01/21 10:54:15;;;;;;;13.85;2.05;;;;;;;4.05;89.13;101851.97;4937813;29;20028;-84
2022/01/21 10:56:41;;;;;;;10.98;1.48;;;;;;;4.04;90.36;101857.41;4934816;29;20060;-86
2022/01/21 10:59:06;;;;;;;12.13;1.45;;;;;;;3.99;90.59;101855.97;4950141;29;20028;-84
2022/01/21 11:01:31;;;;;;;12.45;1.25;;;;;;;3.96;90.15;101831.44;4931835;29;20071;-85
2022/01/21 11:04:11;;;;;;;11.80;1.15;;;;;;;4.06;90.66;101835.00;4924297;29;20083;-86
2022/01/21 11:06:51;;;;;;;10.20;1.17;;;;;;;4.11;90.32;101854.09;4958970;29;20350;-86
2022/01/21 11:09:19;;;;;;;10.88;1.65;;;;;;;4.08;91.61;101873.00;4951822;29;20044;-84
2022/01/21 11:11:46;;;;;;;8.52;1.10;;;;;;;4.15;91.24;101876.84;4949282;29;20027;-86
2022/01/21 11:14:17;;;;;;;7.53;1.10;;;;;;;4.11;90.97;101854.09;4923168;29;20048;-84
2022/01/21 11:16:46;;;;;;;11.85;1.70;;;;;;;4.14;91.58;101861.84;4954192;29;20038;-85
2022/01/21 11:19:15;;;;;;;13.55;1.38;;;;;;;4.08;92.51;101842.88;4959026;29;20031;-84
2022/01/21 11:21:56;;;;;;;15.15;1.60;;;;;;;4.10;91.88;101860.38;4935334;29;20052;-86
2022/01/21 11:24:24;;;;;;;15.05;2.03;;;;;;;4.02;92.25;101846.88;4919935;29;20038;-83
2022/01/21 11:27:14;;;;;;;10.18;1.20;;;;;;;4.18;91.76;101851.75;4951640;29;20016;-85
2022/01/21 11:29:41;;;;;;;17.58;1.83;;;;;;;4.15;91.60;101846.69;4935385;29;20028;-87
2022/01/21 11:32:07;;;;;;;9.88;1.85;;;;;;;4.07;91.66;101834.00;4943942;29;20522;-87
2022/01/21 11:34:34;;;;;;;11.30;1.35;;;;;;;3.99;92.13;101832.00;4942094;29;20031;-85
2022/01/21 11:37:00;;;;;;;13.90;1.55;;;;;;;4.03;92.06;101827.25;4969857;29;20034;-86
2022/01/21 11:39:27;;;;;;;9.90;1.40;;;;;;;3.97;93.11;101811.81;4963174;29;20020;-87
2022/01/21 11:41:56;;;;;;;12.52;1.15;;;;;;;4.01;92.80;101802.59;4919681;29;20035;-86
2022/01/21 11:44:24;;;;;;;12.57;1.48;;;;;;;3.98;92.87;101770.91;4936297;29;20090;-85
2022/01/21 11:47:13;;;;;;;8.45;1.08;;;;;;;4.18;92.77;101799.31;4931971;29;20106;-85
2022/01/21 11:49:53;;;;;;;9.98;1.27;;;;;;;4.23;92.70;101786.44;4939584;29;20040;-84
2022/01/21 11:52:19;;;;;;;15.77;2.42;;;;;;;4.35;92.48;101779.19;4943299;29;20024;-82
2022/01/21 11:54:45;;;;;;;15.88;1.52;;;;;;;4.55;92.76;101798.75;4945456;29;20066;-83
2022/01/21 11:57:12;;;;;;;13.70;1.40;;;;;;;4.57;92.48;101783.50;4946576;29;20047;-81
2022/01/21 11:59:46;;;;;;;18.17;1.73;;;;;;;4.71;92.84;101788.44;4910793;29;20032;-82
2022/01/21 12:02:15;;;;;;;14.73;1.30;;;;;;;4.77;92.96;101778.19;4924369;29;20031;-82
2022/01/21 12:04:42;;;;;;;7.20;1.08;;;;;;;4.86;92.17;101786.19;4939353;29;20039;-81
2022/01/21 12:07:42;;;;;;;10.43;1.73;;;;;;;4.88;92.11;101786.06;4924883;29;20051;-81
2022/01/21 12:10:18;;;;;;;11.50;2.17;;;;;;;4.78;91.54;101779.88;4941321;29;20156;-80
2022/01/21 12:21:05;;;;;;;12.93;1.20;;;;;;;4.55;92.91;101784.59;4943860;29;20051;-81
2022/01/21 12:23:42;;;;;;;10.65;1.23;;;;;;;4.50;93.41;101766.31;4939660;29;20027;-80
2022/01/21 12:26:15;;;;;;;13.18;1.52;;;;;;;4.60;93.38;101766.34;4924994;29;20015;-81
2022/01/21 12:28:44;;;;;;;10.80;1.38;;;;;;;4.57;93.69;101743.50;4941033;29;20039;-80